Time;durP1;ratioP1;P1;durP2;ratioP2;P2;SDS_P1;SDS_P2;PMS_P1;PMS_P2;Temp;Humidity;BMP_temperature;BMP_pressure;BME280_temperature;BME280_humidity;BME280_pressure;Samples;Min_cycle;Max_cycle;Signal;HPM_P1;HPM_P2
2022/06/19 00:01:14;;;;;;;;;2.00;2.00;21.10;99.90;;;;;;4959511;28;8837;-57
2022/06/19 00:03:48;;;;;;;;;1.00;1.00;21.20;99.90;;;;;;4954967;28;9519;-58
2022/06/19 00:06:18;;;;;;;;;3.00;2.00;21.30;99.90;;;;;;4961999;28;8872;-55
2022/06/19 00:08:51;;;;;;;;;3.00;1.75;21.30;99.90;;;;;;4927327;28;8992;-55
2022/06/19 00:11:23;;;;;;;;;2.00;2.00;21.30;99.90;;;;;;4960450;28;9022;-57
2022/06/19 00:13:54;;;;;;;;;2.00;2.00;21.40;99.90;;;;;;4956886;28;8892;-53
2022/06/19 00:16:25;;;;;;;;;2.25;2.25;21.40;99.90;;;;;;4959519;28;8860;-55
2022/06/19 00:18:55;;;;;;;;;1.75;1.75;21.40;99.90;;;;;;4952668;28;9337;-56
2022/06/19 00:21:27;;;;;;;;;2.25;2.25;21.40;99.90;;;;;;4955434;28;9677;-56
2022/06/19 00:23:58;;;;;;;;;2.75;2.75;21.50;99.90;;;;;;4959092;28;8855;-56
2022/06/19 00:26:28;;;;;;;;;1.00;1.00;21.50;99.90;;;;;;4954480;28;8876;-58
2022/06/19 00:29:01;;;;;;;;;2.50;2.50;21.60;99.90;;;;;;4956725;28;8937;-57
2022/06/19 00:31:30;;;;;;;;;3.00;3.00;21.60;99.90;;;;;;4932756;28;8873;-60
2022/06/19 00:34:01;;;;;;;;;3.25;3.25;21.60;99.90;;;;;;4953119;28;8889;-56
2022/06/19 00:36:33;;;;;;;;;2.25;2.25;21.70;99.90;;;;;;4956907;28;8888;-57
2022/06/19 00:39:04;;;;;;;;;2.00;2.00;21.70;99.90;;;;;;4958216;28;8980;-54
2022/06/19 00:41:41;;;;;;;;;3.00;3.00;21.60;99.90;;;;;;4952460;28;8912;-54
2022/06/19 00:44:13;;;;;;;;;2.25;2.25;21.60;99.90;;;;;;4953432;28;8840;-56
2022/06/19 00:46:54;;;;;;;;;4.00;2.25;21.60;99.90;;;;;;4956228;28;8872;-55
2022/06/19 00:49:49;;;;;;;;;2.00;2.00;21.60;99.90;;;;;;4957229;28;8828;-57
2022/06/19 00:52:36;;;;;;;;;2.25;2.25;21.60;99.90;;;;;;4952588;28;9058;-56
2022/06/19 00:55:13;;;;;;;;;2.00;2.00;21.60;99.90;;;;;;4960047;28;9732;-56
2022/06/19 00:57:50;;;;;;;;;3.25;3.25;21.60;99.90;;;;;;4957622;28;8989;-56
2022/06/19 01:00:26;;;;;;;;;3.00;3.00;21.60;99.90;;;;;;4959083;28;8843;-55
2022/06/19 01:03:06;;;;;;;;;2.50;2.50;21.50;99.90;;;;;;4939207;28;8970;-59
2022/06/19 01:05:38;;;;;;;;;2.25;2.25;21.40;99.90;;;;;;4956935;28;8857;-57
2022/06/19 01:08:11;;;;;;;;;3.00;3.00;21.40;99.90;;;;;;4956188;28;8821;-55
2022/06/19 01:10:46;;;;;;;;;0.00;0.00;21.40;99.90;;;;;;4958937;28;8825;-57
2022/06/19 01:13:20;;;;;;;;;0.00;0.00;21.40;99.90;;;;;;4953706;28;8861;-56
2022/06/19 01:15:52;;;;;;;;;2.00;2.00;21.30;99.90;;;;;;4956581;28;8884;-56
2022/06/19 01:18:25;;;;;;;;;2.00;2.00;21.30;99.90;;;;;;4937612;28;9581;-56
2022/06/19 01:21:14;;;;;;;;;3.00;3.00;21.30;99.90;;;;;;4936414;28;8851;-54
2022/06/19 01:24:21;;;;;;;;;1.00;1.00;21.20;99.90;;;;;;4929960;28;8882;-55
2022/06/19 01:26:58;;;;;;;;;3.75;3.75;21.20;99.90;;;;;;4915552;28;8862;-54
2022/06/19 01:29:33;;;;;;;;;2.67;2.67;21.00;99.90;;;;;;4930572;28;8832;-54
2022/06/19 01:32:07;;;;;;;;;2.00;2.00;20.90;99.90;;;;;;4935016;28;8955;-56
2022/06/19 01:34:41;;;;;;;;;4.00;2.67;20.90;99.90;;;;;;4934768;28;8843;-54
2022/06/19 01:37:27;;;;;;;;;1.00;1.00;20.90;99.90;;;;;;4919096;28;9784;-56
2022/06/19 01:40:18;;;;;;;;;1.33;1.33;20.90;99.90;;;;;;4935663;28;9061;-54
2022/06/19 01:42:49;;;;;;;;;2.00;2.00;20.90;99.90;;;;;;4942469;28;9058;-52
2022/06/19 01:45:19;;;;;;;;;2.00;2.00;20.90;99.90;;;;;;4936839;28;8981;-54
2022/06/19 01:47:52;;;;;;;;;3.00;3.00;20.90;99.90;;;;;;4912432;28;9033;-56
2022/06/19 01:50:28;;;;;;;;;2.33;2.33;20.90;99.90;;;;;;4929107;28;9000;-53
2022/06/19 01:53:05;;;;;;;;;2.00;2.00;21.00;99.90;;;;;;4935993;28;9115;-56
2022/06/19 01:55:38;;;;;;;;;2.00;2.00;21.10;99.90;;;;;;4939333;28;9098;-52
2022/06/19 01:58:09;;;;;;;;;2.00;2.00;21.00;99.90;;;;;;4933147;28;9013;-56
2022/06/19 02:00:42;;;;;;;;;2.00;2.00;21.00;99.90;;;;;;4934511;28;9239;-57
2022/06/19 02:03:37;;;;;;;;;2.00;2.00;21.00;99.90;;;;;;4919690;28;9019;-54
2022/06/19 02:06:11;;;;;;;;;2.00;2.00;21.00;99.90;;;;;;4932139;28;9278;-56
2022/06/19 02:08:43;;;;;;;;;2.00;2.00;20.90;99.90;;;;;;4932960;28;9063;-56
2022/06/19 02:11:16;;;;;;;;;2.00;2.00;20.90;99.90;;;;;;4940057;28;8855;-57
2022/06/19 02:13:48;;;;;;;;;2.75;2.75;21.00;99.90;;;;;;4929689;28;8865;-54
2022/06/19 02:16:22;;;;;;;;;3.00;3.00;20.90;99.90;;;;;;4922570;28;8964;-55
2022/06/19 02:18:55;;;;;;;;;2.00;2.00;20.90;99.90;;;;;;4937887;28;10488;-56
2022/06/19 02:21:38;;;;;;;;;4.00;4.00;20.80;99.90;;;;;;4949097;28;8955;-57
2022/06/19 02:24:12;;;;;;;;;2.00;2.00;20.70;99.90;;;;;;4933691;28;9022;-54
2022/06/19 02:26:44;;;;;;;;;4.00;2.00;20.70;99.90;;;;;;4954793;28;8922;-53
2022/06/19 02:29:17;;;;;;;;;3.67;3.67;20.70;99.90;;;;;;4936045;28;9064;-52
2022/06/19 02:31:54;;;;;;;;;3.00;2.00;20.60;99.90;;;;;;4957220;28;9241;-56
2022/06/19 02:34:36;;;;;;;;;2.00;1.67;20.60;99.90;;;;;;4950595;28;9036;-56
2022/06/19 02:37:23;;;;;;;;;2.00;2.00;20.60;99.90;;;;;;4954230;28;9085;-56
2022/06/19 02:40:20;;;;;;;;;1.00;1.00;20.50;99.90;;;;;;4945785;28;8888;-55
2022/06/19 02:42:50;;;;;;;;;2.00;2.00;20.40;99.90;;;;;;4960834;28;9064;-54
2022/06/19 02:45:24;;;;;;;;;2.67;2.67;20.30;99.90;;;;;;4951439;28;9193;-53
2022/06/19 02:47:59;;;;;;;;;2.00;2.00;20.30;99.90;;;;;;4955520;28;9845;-55
2022/06/19 02:50:33;;;;;;;;;1.00;1.00;20.30;99.90;;;;;;4953991;28;8966;-57
2022/06/19 02:53:03;;;;;;;;;2.33;2.33;20.30;99.90;;;;;;4955195;28;9230;-56
2022/06/19 02:55:34;;;;;;;;;4.00;3.67;20.20;99.90;;;;;;4949245;28;10279;-54
2022/06/19 02:58:05;;;;;;;;;3.00;3.00;20.20;99.90;;;;;;4937578;28;9098;-56
2022/06/19 03:00:36;;;;;;;;;2.00;2.00;20.20;99.90;;;;;;4955762;28;9336;-55
2022/06/19 03:03:16;;;;;;;;;2.33;2.33;20.10;99.90;;;;;;4952281;28;9212;-55
2022/06/19 03:05:47;;;;;;;;;2.00;2.00;20.00;99.90;;;;;;4946075;28;9221;-56
2022/06/19 03:08:17;;;;;;;;;2.00;2.00;19.90;99.90;;;;;;4954390;28;9492;-55
2022/06/19 03:10:48;;;;;;;;;2.33;2.33;19.90;99.90;;;;;;4953684;28;9497;-55
2022/06/19 03:13:19;;;;;;;;;3.00;3.00;19.90;99.90;;;;;;4953615;28;9505;-55
2022/06/19 03:16:03;;;;;;;;;1.00;1.00;19.70;99.90;;;;;;4966586;28;9419;-56
2022/06/19 03:18:35;;;;;;;;;1.33;1.33;19.60;99.90;;;;;;4964654;28;9625;-55
2022/06/19 03:21:06;;;;;;;;;3.67;2.00;19.60;99.90;;;;;;4962507;28;9671;-53
2022/06/19 03:23:36;;;;;;;;;3.00;3.00;19.60;99.90;;;;;;4956819;28;10403;-51
2022/06/19 03:26:07;;;;;;;;;2.00;2.00;19.60;99.90;;;;;;4958722;28;9648;-55
2022/06/19 03:28:37;;;;;;;;;2.50;2.50;19.50;99.90;;;;;;4963329;28;10025;-54
2022/06/19 03:31:07;;;;;;;;;4.00;2.00;19.50;99.90;;;;;;4939220;28;9585;-55
2022/06/19 03:33:38;;;;;;;;;2.00;2.00;19.40;99.90;;;;;;4938697;28;10410;-56
2022/06/19 03:36:10;;;;;;;;;2.00;2.00;19.30;99.90;;;;;;4941216;28;9633;-54
2022/06/19 03:38:43;;;;;;;;;3.33;3.33;19.30;99.90;;;;;;4959593;28;9698;-55
2022/06/19 03:41:14;;;;;;;;;4.00;4.00;19.30;99.90;;;;;;4957111;28;9686;-54
2022/06/19 03:43:44;;;;;;;;;1.75;1.75;19.30;99.90;;;;;;4952829;28;9742;-54
2022/06/19 03:46:18;;;;;;;;;1.25;1.25;19.30;99.90;;;;;;4963942;28;9647;-57
2022/06/19 03:48:50;;;;;;;;;2.75;2.00;19.20;99.90;;;;;;4958432;28;9775;-57
2022/06/19 03:51:24;;;;;;;;;3.75;2.50;19.20;99.90;;;;;;4959709;28;10655;-54
2022/06/19 03:53:56;;;;;;;;;1.00;1.00;19.10;99.90;;;;;;4961396;28;9804;-53
2022/06/19 03:56:33;;;;;;;;;1.50;1.50;19.10;99.90;;;;;;4959655;28;10569;-53
2022/06/19 03:59:03;;;;;;;;;1.75;1.75;19.00;99.90;;;;;;4940337;28;9836;-55
2022/06/19 04:01:36;;;;;;;;;2.00;2.00;19.00;99.90;;;;;;4968184;28;9891;-55
2022/06/19 04:04:08;;;;;;;;;2.50;2.50;19.00;99.90;;;;;;4960837;28;9915;-54
2022/06/19 04:06:42;;;;;;;;;2.75;2.75;19.00;99.90;;;;;;4966102;28;9932;-55
2022/06/19 04:09:16;;;;;;;;;2.25;2.25;18.90;99.90;;;;;;4960546;28;9871;-57
2022/06/19 04:11:47;;;;;;;;;1.75;1.75;18.90;99.90;;;;;;4964905;28;9932;-55
2022/06/19 04:14:18;;;;;;;;;3.00;1.75;18.90;99.90;;;;;;4956985;28;10140;-53
2022/06/19 04:16:49;;;;;;;;;3.25;3.25;18.80;99.90;;;;;;4964244;28;10046;-51
2022/06/19 04:19:21;;;;;;;;;2.75;2.75;18.80;99.90;;;;;;4956556;28;10197;-53
2022/06/19 04:21:52;;;;;;;;;1.00;1.00;18.80;99.90;;;;;;4963340;28;10221;-56
2022/06/19 04:24:23;;;;;;;;;2.75;2.75;18.80;99.90;;;;;;4940029;28;10423;-55
2022/06/19 04:26:54;;;;;;;;;2.00;2.00;18.70;99.90;;;;;;4958278;28;10872;-56
2022/06/19 04:29:25;;;;;;;;;3.75;3.75;18.70;99.90;;;;;;4946283;28;10243;-53
2022/06/19 04:31:56;;;;;;;;;2.50;2.50;18.60;99.90;;;;;;4960227;28;10395;-52
2022/06/19 04:34:26;;;;;;;;;2.00;2.00;18.60;99.90;;;;;;4956471;28;10274;-55
2022/06/19 04:36:57;;;;;;;;;3.50;2.25;18.60;99.90;;;;;;4939215;28;10190;-55
2022/06/19 04:39:27;;;;;;;;;3.50;3.50;18.60;99.90;;;;;;4955475;28;10381;-54
2022/06/19 04:41:59;;;;;;;;;5.00;3.50;18.60;99.90;;;;;;4942153;28;10305;-57
2022/06/19 04:44:30;;;;;;;;;3.50;3.50;18.60;99.90;;;;;;4961658;28;11325;-56
2022/06/19 04:47:00;;;;;;;;;5.00;2.75;18.60;99.90;;;;;;4945041;28;10461;-54
2022/06/19 04:49:31;;;;;;;;;2.00;2.00;18.50;99.90;;;;;;4958680;28;10673;-56
2022/06/19 04:52:00;;;;;;;;;0.00;0.00;18.50;99.90;;;;;;4941827;28;10404;-56
2022/06/19 04:54:30;;;;;;;;;3.00;3.00;18.40;99.90;;;;;;4943001;28;10451;-62
2022/06/19 04:57:00;;;;;;;;;4.00;4.00;18.40;99.90;;;;;;4958656;28;10145;-56
2022/06/19 04:59:31;;;;;;;;;3.50;2.00;18.40;99.90;;;;;;4960308;28;11171;-56
2022/06/19 05:02:01;;;;;;;;;2.75;2.00;18.40;99.90;;;;;;4958193;28;10146;-54
2022/06/19 05:04:32;;;;;;;;;2.25;1.00;18.40;99.90;;;;;;4955651;28;10446;-54
2022/06/19 05:07:02;;;;;;;;;3.25;3.25;18.40;99.90;;;;;;4957734;28;11341;-58
2022/06/19 05:09:36;;;;;;;;;2.00;2.00;18.30;99.90;;;;;;4958365;28;11208;-55
2022/06/19 05:12:06;;;;;;;;;2.00;2.00;18.20;99.90;;;;;;4956401;28;11763;-57
2022/06/19 05:14:39;;;;;;;;;3.50;1.25;18.20;99.90;;;;;;4959734;28;10292;-49
2022/06/19 05:17:10;;;;;;;;;2.00;2.00;18.20;99.90;;;;;;4955442;28;9937;-51
2022/06/19 05:19:42;;;;;;;;;0.50;0.50;18.10;99.90;;;;;;4946483;28;10073;-51
2022/06/19 05:22:13;;;;;;;;;1.50;1.50;18.20;99.90;;;;;;4920437;28;9971;-59
2022/06/19 05:24:43;;;;;;;;;2.50;2.50;18.10;99.90;;;;;;4939124;28;10124;-52
2022/06/19 05:27:13;;;;;;;;;0.25;0.25;18.20;99.90;;;;;;4938730;28;10157;-54
2022/06/19 05:29:47;;;;;;;;;2.25;1.25;18.20;99.90;;;;;;4942005;28;9993;-58
2022/06/19 05:32:23;;;;;;;;;1.50;1.50;18.00;99.90;;;;;;4937795;28;10225;-61
2022/06/19 05:34:54;;;;;;;;;1.25;1.25;18.10;99.90;;;;;;4945349;28;10175;-63
2022/06/19 05:37:25;;;;;;;;;2.50;2.50;18.00;99.90;;;;;;4919440;28;10160;-64
2022/06/19 05:39:56;;;;;;;;;2.25;2.25;18.00;99.90;;;;;;4918613;28;10429;-63
2022/06/19 05:42:27;;;;;;;;;3.00;3.00;18.00;99.90;;;;;;4933199;28;10315;-62
2022/06/19 05:44:59;;;;;;;;;2.00;2.00;18.00;99.90;;;;;;4935082;28;10153;-64
2022/06/19 05:47:31;;;;;;;;;3.50;3.50;18.00;99.90;;;;;;4936345;28;10028;-62
2022/06/19 05:50:02;;;;;;;;;2.50;2.50;17.90;99.90;;;;;;4929428;28;11660;-61
2022/06/19 05:52:32;;;;;;;;;3.25;3.25;17.90;99.90;;;;;;4919551;28;10233;-60
2022/06/19 05:55:02;;;;;;;;;4.00;3.00;17.90;99.90;;;;;;4911316;28;10354;-60
2022/06/19 05:57:34;;;;;;;;;1.00;1.00;17.80;99.90;;;;;;4944316;28;10171;-60
2022/06/19 06:00:08;;;;;;;;;1.25;1.25;17.90;99.90;;;;;;4942976;28;12079;-62
2022/06/19 06:02:41;;;;;;;;;1.00;1.00;17.90;99.90;;;;;;4938351;28;9988;-62
2022/06/19 06:05:12;;;;;;;;;2.50;2.50;17.80;99.90;;;;;;4940706;28;10218;-60
2022/06/19 06:07:42;;;;;;;;;1.75;1.75;17.80;99.90;;;;;;4921709;28;10240;-61
2022/06/19 06:10:12;;;;;;;;;2.00;2.00;17.80;99.90;;;;;;4923014;28;10841;-59
2022/06/19 06:12:43;;;;;;;;;1.00;1.00;17.80;99.90;;;;;;4940474;28;10318;-58
2022/06/19 06:15:14;;;;;;;;;3.50;2.00;17.70;99.90;;;;;;4936520;28;10432;-60
2022/06/19 06:17:45;;;;;;;;;2.25;2.25;17.80;99.90;;;;;;4938891;28;10316;-62
2022/06/19 06:20:15;;;;;;;;;2.00;2.00;17.80;99.90;;;;;;4950538;28;10440;-59
2022/06/19 06:22:47;;;;;;;;;2.00;2.00;17.70;99.90;;;;;;4959523;28;10392;-61
2022/06/19 06:25:18;;;;;;;;;3.50;3.50;17.60;99.90;;;;;;4949941;28;10439;-62
2022/06/19 06:27:51;;;;;;;;;2.50;2.50;17.60;99.90;;;;;;4952819;28;10403;-63
2022/06/19 06:30:21;;;;;;;;;4.75;4.75;17.60;99.90;;;;;;4953371;28;10475;-63
2022/06/19 06:32:52;;;;;;;;;5.50;5.50;17.60;99.90;;;;;;4937828;28;10811;-60
2022/06/19 06:35:24;;;;;;;;;5.50;5.50;17.60;99.90;;;;;;4934272;28;10854;-61
2022/06/19 06:37:59;;;;;;;;;5.75;5.75;17.50;99.90;;;;;;4959438;28;10966;-61
2022/06/19 06:40:31;;;;;;;;;6.50;6.50;17.50;99.90;;;;;;4956209;28;10737;-58
2022/06/19 06:43:00;;;;;;;;;9.25;7.75;17.50;99.90;;;;;;4955057;28;10889;-61
2022/06/19 06:45:31;;;;;;;;;10.00;9.00;17.50;99.90;;;;;;4936444;28;10985;-60
2022/06/19 06:48:01;;;;;;;;;9.00;9.00;17.50;99.90;;;;;;4936432;28;10934;-59
2022/06/19 06:50:32;;;;;;;;;12.50;12.50;17.50;99.90;;;;;;4938396;28;11107;-61
2022/06/19 06:53:03;;;;;;;;;17.00;15.50;17.50;99.90;;;;;;4921714;28;11204;-60
2022/06/19 06:55:38;;;;;;;;;16.25;16.25;17.40;99.90;;;;;;4952569;28;11189;-60
2022/06/19 06:58:12;;;;;;;;;14.00;14.00;17.40;99.90;;;;;;4954135;28;12176;-62
2022/06/19 07:00:42;;;;;;;;;17.00;17.00;17.30;99.90;;;;;;4957001;28;11421;-60
2022/06/19 07:03:14;;;;;;;;;19.75;19.75;17.30;99.90;;;;;;4953225;28;11483;-60
2022/06/19 07:05:44;;;;;;;;;22.00;22.00;17.30;99.90;;;;;;4954111;28;11579;-62
2022/06/19 07:08:15;;;;;;;;;20.50;20.50;17.30;99.90;;;;;;4951995;28;11511;-61
2022/06/19 07:10:45;;;;;;;;;21.50;21.50;17.30;99.90;;;;;;4933617;28;11325;-59
2022/06/19 07:13:16;;;;;;;;;22.25;22.25;17.30;99.90;;;;;;4953189;28;11332;-59
2022/06/19 07:15:47;;;;;;;;;22.75;19.50;17.30;99.90;;;;;;4949223;28;11541;-59
2022/06/19 07:18:19;;;;;;;;;18.00;18.00;17.20;99.90;;;;;;4952950;28;11251;-59
2022/06/19 07:20:49;;;;;;;;;14.00;14.00;17.20;99.90;;;;;;4963821;28;12307;-59
2022/06/19 07:23:20;;;;;;;;;12.75;11.00;17.20;99.90;;;;;;4958317;28;12282;-59
2022/06/19 07:25:51;;;;;;;;;7.00;7.00;17.20;99.90;;;;;;4954940;28;11223;-59
2022/06/19 07:28:23;;;;;;;;;2.75;2.75;17.20;99.90;;;;;;4954661;28;11309;-58
2022/06/19 07:30:53;;;;;;;;;4.50;3.00;17.20;99.90;;;;;;4952774;28;11037;-59
2022/06/19 07:33:23;;;;;;;;;4.00;4.00;17.10;99.90;;;;;;4923304;28;11064;-59
2022/06/19 07:35:53;;;;;;;;;2.00;2.00;17.10;99.90;;;;;;4955806;28;10719;-59
2022/06/19 07:38:23;;;;;;;;;3.00;3.00;17.00;99.90;;;;;;4947951;28;10727;-58
2022/06/19 07:40:53;;;;;;;;;4.00;4.00;17.00;99.90;;;;;;4957678;28;10471;-58
2022/06/19 07:43:24;;;;;;;;;4.50;4.00;17.00;99.90;;;;;;4951326;28;10588;-60
2022/06/19 07:45:56;;;;;;;;;2.00;2.00;17.00;99.90;;;;;;4958755;28;10614;-59
2022/06/19 07:51:21;;;;;;;;;3.00;3.00;16.90;99.90;;;;;;4950833;28;10538;-60
2022/06/19 07:53:58;;;;;;;;;5.00;4.50;16.90;99.90;;;;;;4949427;28;10587;-59
2022/06/19 07:56:29;;;;;;;;;2.00;2.00;16.90;99.90;;;;;;4956444;28;10718;-59
2022/06/19 07:59:02;;;;;;;;;3.75;3.75;16.80;99.90;;;;;;4945691;28;10688;-57
2022/06/19 08:01:33;;;;;;;;;2.75;2.75;16.80;99.90;;;;;;4934474;28;10779;-59
2022/06/19 08:04:25;;;;;;;;;4.25;4.25;16.80;99.90;;;;;;4954256;28;10642;-59
2022/06/19 08:06:56;;;;;;;;;3.25;3.25;16.80;99.90;;;;;;4955608;28;10730;-59
2022/06/19 08:09:27;;;;;;;;;4.25;4.25;16.80;99.90;;;;;;4962903;28;10891;-59
2022/06/19 08:11:57;;;;;;;;;5.00;3.75;16.80;99.90;;;;;;4957039;28;10755;-59
2022/06/19 08:14:26;;;;;;;;;3.50;3.50;16.80;99.90;;;;;;4955303;28;10743;-59
2022/06/19 08:16:56;;;;;;;;;3.75;3.75;16.70;99.90;;;;;;4955529;28;10755;-58
2022/06/19 08:19:27;;;;;;;;;3.50;3.50;16.70;99.90;;;;;;4956762;28;10852;-58
2022/06/19 08:21:59;;;;;;;;;3.00;3.00;16.60;99.90;;;;;;4962959;28;10641;-60
2022/06/19 08:24:29;;;;;;;;;5.00;2.00;16.60;99.90;;;;;;4957367;28;10950;-58
2022/06/19 08:27:04;;;;;;;;;1.50;1.50;16.60;99.90;;;;;;4958453;28;10662;-62
2022/06/19 08:29:35;;;;;;;;;3.00;3.00;16.50;99.90;;;;;;4953112;28;11167;-58
2022/06/19 08:32:07;;;;;;;;;2.00;2.00;16.50;99.90;;;;;;4955217;28;10656;-57
2022/06/19 08:34:37;;;;;;;;;3.00;3.00;16.50;99.90;;;;;;4955692;28;10791;-59
2022/06/19 08:37:10;;;;;;;;;2.75;2.75;16.50;99.90;;;;;;4955360;28;11275;-59
2022/06/19 08:39:40;;;;;;;;;2.00;2.00;16.40;99.90;;;;;;4956983;28;10568;-59
2022/06/19 08:42:41;;;;;;;;;4.00;4.00;16.50;99.90;;;;;;4938508;28;10676;-59
2022/06/19 08:45:35;;;;;;;;;2.50;2.50;16.40;99.90;;;;;;4929260;28;10773;-58
2022/06/19 08:48:46;;;;;;;;;3.00;3.00;16.40;99.90;;;;;;4941018;28;11459;-59
2022/06/19 08:51:37;;;;;;;;;3.00;3.00;16.40;99.90;;;;;;4959568;28;10821;-59
2022/06/19 08:54:31;;;;;;;;;3.00;3.00;16.40;99.90;;;;;;4957300;28;10696;-58
2022/06/19 08:57:20;;;;;;;;;3.00;3.00;16.40;99.90;;;;;;4955117;28;11461;-59
2022/06/19 09:00:04;;;;;;;;;2.00;2.00;16.30;99.90;;;;;;4954919;28;10779;-58
2022/06/19 09:02:44;;;;;;;;;3.75;3.75;16.30;99.90;;;;;;4957849;28;10753;-58
2022/06/19 09:05:39;;;;;;;;;2.50;2.50;16.30;99.90;;;;;;4954902;28;11009;-59
2022/06/19 09:08:45;;;;;;;;;3.25;3.25;16.30;99.90;;;;;;4956469;28;10900;-59
2022/06/19 09:12:06;;;;;;;;;2.00;2.00;16.30;99.90;;;;;;4960909;28;10839;-60
2022/06/19 09:14:50;;;;;;;;;5.00;4.50;16.20;99.90;;;;;;4951935;28;10809;-59
2022/06/19 09:17:37;;;;;;;;;6.00;6.00;16.20;99.90;;;;;;4956747;28;11056;-59
2022/06/19 09:20:19;;;;;;;;;4.00;4.00;16.20;99.90;;;;;;4956206;28;10867;-59
2022/06/19 09:23:18;;;;;;;;;4.75;4.75;16.20;99.90;;;;;;4951987;28;10849;-59
2022/06/19 09:26:02;;;;;;;;;4.50;4.50;16.20;99.90;;;;;;4949737;28;10742;-61
2022/06/19 09:28:32;;;;;;;;;3.50;3.50;16.20;99.90;;;;;;4955042;28;10815;-59
2022/06/19 09:31:20;;;;;;;;;3.50;3.00;16.10;99.90;;;;;;4952829;28;11385;-58
2022/06/19 09:34:01;;;;;;;;;3.50;3.50;16.10;99.90;;;;;;4934255;28;10799;-59
2022/06/19 09:36:59;;;;;;;;;3.25;3.00;16.10;99.90;;;;;;4961046;28;10967;-63
2022/06/19 09:40:00;;;;;;;;;3.00;3.00;16.10;99.90;;;;;;4955148;28;10905;-60
2022/06/19 09:43:14;;;;;;;;;4.25;4.25;16.00;99.90;;;;;;4953981;28;10841;-60
2022/06/19 09:46:38;;;;;;;;;4.00;4.00;16.10;99.90;;;;;;4956692;28;10814;-58
2022/06/19 09:49:28;;;;;;;;;6.00;4.25;16.00;99.90;;;;;;4938420;28;10960;-60
2022/06/19 09:52:18;;;;;;;;;4.25;4.25;16.00;99.90;;;;;;4939802;28;11015;-59
2022/06/19 09:54:57;;;;;;;;;4.75;4.75;16.00;99.90;;;;;;4954242;28;11150;-58
2022/06/19 09:58:01;;;;;;;;;3.75;3.75;16.00;99.90;;;;;;4957795;28;10928;-59
2022/06/19 10:00:35;;;;;;;;;4.25;4.25;15.90;99.90;;;;;;4941516;28;10960;-58
2022/06/19 10:03:33;;;;;;;;;4.00;4.00;15.90;99.90;;;;;;4949392;28;11115;-60
2022/06/19 10:06:18;;;;;;;;;3.50;3.50;15.90;99.90;;;;;;4948192;28;11705;-58
2022/06/19 10:08:55;;;;;;;;;5.00;5.00;15.90;99.90;;;;;;4952757;28;11019;-58
2022/06/19 10:11:31;;;;;;;;;5.00;4.00;15.90;99.90;;;;;;4956067;28;11129;-58
2022/06/19 10:14:27;;;;;;;;;4.75;3.50;15.90;99.90;;;;;;4948485;28;11709;-58
2022/06/19 10:17:16;;;;;;;;;4.25;4.25;15.80;99.90;;;;;;4950975;28;11034;-59
2022/06/19 10:19:52;;;;;;;;;4.00;4.00;15.80;99.90;;;;;;4955342;28;10705;-59
2022/06/19 10:22:56;;;;;;;;;4.00;4.00;15.80;99.90;;;;;;4933897;28;11013;-58
2022/06/19 10:25:40;;;;;;;;;6.75;5.00;15.70;99.90;;;;;;4918139;28;10978;-59
2022/06/19 10:28:57;;;;;;;;;4.00;4.00;15.70;99.90;;;;;;4952490;28;11095;-59
2022/06/19 10:31:45;;;;;;;;;5.75;4.75;15.60;99.90;;;;;;4946474;28;11009;-59
2022/06/19 10:34:35;;;;;;;;;6.00;5.25;15.60;99.90;;;;;;4950541;28;11147;-59
2022/06/19 10:37:31;;;;;;;;;3.00;2.25;15.60;99.90;;;;;;4955117;28;11142;-59
2022/06/19 10:40:14;;;;;;;;;3.00;3.00;15.60;99.90;;;;;;4954671;28;11140;-59
2022/06/19 10:42:44;;;;;;;;;4.25;4.25;15.60;99.90;;;;;;4955488;28;10946;-58
2022/06/19 10:45:28;;;;;;;;;5.00;4.00;15.60;99.90;;;;;;4951272;28;11112;-59
2022/06/19 10:47:59;;;;;;;;;5.00;5.00;15.60;99.90;;;;;;4955198;28;11105;-60
2022/06/19 10:50:47;;;;;;;;;4.00;4.00;15.60;99.90;;;;;;4953933;28;10947;-59
2022/06/19 10:53:45;;;;;;;;;4.00;4.00;15.50;99.90;;;;;;4959743;28;11452;-59
2022/06/19 10:56:48;;;;;;;;;5.50;5.50;15.50;99.90;;;;;;4953888;28;11107;-59
2022/06/19 10:59:21;;;;;;;;;2.75;2.75;15.50;99.90;;;;;;4947758;28;11169;-60
2022/06/19 11:05:07;;;;;;;;;4.00;4.00;15.50;99.90;;;;;;4955097;28;13117;-58
2022/06/19 11:07:41;;;;;;;;;4.00;4.00;15.50;99.90;;;;;;4939281;28;12019;-59
2022/06/19 11:10:29;;;;;;;;;3.00;3.00;15.40;99.90;;;;;;4951368;28;11305;-59
2022/06/19 11:13:05;;;;;;;;;4.75;3.00;15.40;99.90;;;;;;4954919;28;11132;-61
2022/06/19 11:15:43;;;;;;;;;3.25;3.25;15.40;99.90;;;;;;4949748;28;11038;-59
2022/06/19 11:18:19;;;;;;;;;4.00;4.00;15.30;99.90;;;;;;4955053;28;11172;-58
2022/06/19 11:21:12;;;;;;;;;6.75;5.50;15.30;99.90;;;;;;4945179;28;11850;-59
2022/06/19 11:23:50;;;;;;;;;4.00;4.00;15.30;99.90;;;;;;4951411;28;11508;-58
2022/06/19 11:26:28;;;;;;;;;4.00;4.00;15.30;99.90;;;;;;4951486;28;11128;-59
2022/06/19 11:29:04;;;;;;;;;4.50;4.50;15.30;99.90;;;;;;4953927;28;11173;-60
2022/06/19 11:31:40;;;;;;;;;5.00;3.25;15.30;99.90;;;;;;4953589;28;11240;-59
2022/06/19 11:37:22;;;;;;;;;3.75;3.75;15.20;99.90;;;;;;4956438;28;11471;-58
2022/06/19 11:39:58;;;;;;;;;4.00;4.00;15.20;99.90;;;;;;4956667;28;11069;-59
2022/06/19 11:42:38;;;;;;;;;3.00;3.00;15.20;99.90;;;;;;4958555;28;11800;-59
2022/06/19 11:45:14;;;;;;;;;4.75;4.75;15.20;99.90;;;;;;4954349;28;11435;-57
2022/06/19 11:47:55;;;;;;;;;4.00;4.00;15.20;99.90;;;;;;4960528;28;11476;-59
2022/06/19 11:50:32;;;;;;;;;3.50;3.50;15.20;99.90;;;;;;4954973;28;11658;-58
2022/06/19 11:53:10;;;;;;;;;3.25;3.25;15.10;99.90;;;;;;4958099;28;11496;-59
2022/06/19 11:55:47;;;;;;;;;4.00;4.00;15.10;99.90;;;;;;4957423;28;11834;-59
2022/06/19 11:58:30;;;;;;;;;4.00;4.00;15.10;99.90;;;;;;4959276;28;12112;-58
2022/06/19 12:01:19;;;;;;;;;4.50;4.50;15.10;99.90;;;;;;4952470;28;11483;-60
2022/06/19 12:03:53;;;;;;;;;3.00;3.00;15.10;99.90;;;;;;4955533;28;12026;-59
2022/06/19 12:06:48;;;;;;;;;5.25;4.75;15.00;99.90;;;;;;4957308;28;11329;-58
2022/06/19 12:10:01;;;;;;;;;3.25;3.25;15.00;99.90;;;;;;4958402;28;11520;-59
2022/06/19 12:12:33;;;;;;;;;6.00;6.00;15.00;99.90;;;;;;4941638;28;11236;-58
2022/06/19 12:15:26;;;;;;;;;3.75;3.75;15.00;99.90;;;;;;4955300;28;11473;-58
2022/06/19 12:18:16;;;;;;;;;4.25;4.25;15.00;99.90;;;;;;4958483;28;11320;-60
2022/06/19 12:21:07;;;;;;;;;6.25;4.75;15.00;99.90;;;;;;4954733;28;11431;-59
2022/06/19 12:23:45;;;;;;;;;4.50;4.50;15.00;99.90;;;;;;4958663;28;11450;-58
2022/06/19 12:26:25;;;;;;;;;4.25;4.25;14.90;99.90;;;;;;4953442;28;12641;-59
2022/06/19 12:29:22;;;;;;;;;6.25;5.00;14.90;99.90;;;;;;4957874;28;11475;-59
2022/06/19 12:31:56;;;;;;;;;3.00;3.00;14.90;99.90;;;;;;4942083;28;11513;-59
2022/06/19 12:34:42;;;;;;;;;4.00;4.00;15.00;99.90;;;;;;4955214;28;11067;-59
2022/06/19 12:37:27;;;;;;;;;5.00;5.00;14.90;99.90;;;;;;4954260;28;11398;-58
2022/06/19 12:39:57;;;;;;;;;4.75;4.75;14.90;99.90;;;;;;4955261;28;11625;-60
2022/06/19 12:42:49;;;;;;;;;4.00;4.00;14.90;99.90;;;;;;4957743;28;11541;-57
2022/06/19 12:45:59;;;;;;;;;3.00;3.00;14.90;99.90;;;;;;4954518;28;11247;-59
2022/06/19 12:48:41;;;;;;;;;4.50;4.00;14.90;99.90;;;;;;4911339;28;11182;-61
2022/06/19 12:51:21;;;;;;;;;4.00;4.00;14.90;99.90;;;;;;4954482;28;11494;-58
2022/06/19 12:54:11;;;;;;;;;5.25;4.00;14.80;99.90;;;;;;4959821;28;11517;-59
2022/06/19 12:57:25;;;;;;;;;3.00;3.00;14.80;99.90;;;;;;4956696;28;11269;-59
2022/06/19 13:00:20;;;;;;;;;4.00;4.00;14.80;99.90;;;;;;4876152;29;11258;-60
2022/06/19 13:03:19;;;;;;;;;4.00;4.00;14.80;99.90;;;;;;4879044;29;11358;-59
2022/06/19 13:06:17;;;;;;;;;2.00;2.00;14.80;99.90;;;;;;4881402;29;11557;-59
2022/06/19 13:09:19;;;;;;;;;6.00;5.75;14.70;99.90;;;;;;4874864;29;11220;-59
2022/06/19 13:12:23;;;;;;;;;5.50;4.50;14.70;99.90;;;;;;4932897;28;11666;-59
2022/06/19 13:15:17;;;;;;;;;3.25;3.25;14.70;99.90;;;;;;4952218;28;11663;-59
2022/06/19 13:17:57;;;;;;;;;4.00;4.00;14.70;99.90;;;;;;4952352;28;11203;-60
2022/06/19 13:20:56;;;;;;;;;5.00;5.00;14.70;99.90;;;;;;4929586;28;11540;-60
2022/06/19 13:23:44;;;;;;;;;4.25;4.25;14.70;99.90;;;;;;4934980;28;12195;-59
2022/06/19 13:30:06;;;;;;;;;2.00;2.00;14.70;99.90;;;;;;4928549;28;11413;-60
2022/06/19 13:32:53;;;;;;;;;4.00;3.00;14.70;99.90;;;;;;4934787;28;11257;-58
2022/06/19 13:35:37;;;;;;;;;2.75;2.75;14.70;99.90;;;;;;4934191;28;12119;-60
2022/06/19 13:38:31;;;;;;;;;5.25;5.25;14.70;99.90;;;;;;4937817;28;11498;-59
2022/06/19 13:41:32;;;;;;;;;2.75;2.75;14.70;99.90;;;;;;4938707;28;11507;-59
2022/06/19 13:44:27;;;;;;;;;3.75;3.75;14.70;99.90;;;;;;4892709;28;11951;-59
2022/06/19 13:47:20;;;;;;;;;4.00;4.00;14.70;99.90;;;;;;4935776;28;11461;-59
2022/06/19 13:50:15;;;;;;;;;4.50;4.50;14.70;99.90;;;;;;4929849;28;11135;-59
2022/06/19 13:53:03;;;;;;;;;3.50;3.50;14.70;99.90;;;;;;4943876;28;11435;-59
2022/06/19 13:56:05;;;;;;;;;3.00;3.00;14.70;99.90;;;;;;4919936;28;11380;-60
2022/06/19 13:59:06;;;;;;;;;4.00;4.00;14.70;99.90;;;;;;4936850;28;11594;-59